Avondale, Louisiana
Current Conditions -  °F | °C
As of 10:53 PM on Thursday 30 Oct 2014 (Local Time) from KMSY Reporting Station
Clear Clear  
Wind Chill: 58°   Ceiling: Unl
Heat Index: 58°   Visibility: 10mi
Dew Point: 51°   Wind: 3mph
Humidity: 78%   Direction: 270°W
Pressure: 30.05"   Gusts: NA
Location:  29.9137°N, 90.2078°W
Report Text: KMSY 310353Z 27003KT 10SM CLR 14/11 A3005 RMK AO2 SLP179 T01440106
Loading
Personal Weather Stations






























Interactive Weather Map
Tropical Storm Tracking
New forecast layout! Learn more

10-Day Weather Forecast

Advertisements
Track Severe Weather on mobile